createdAt,value
2022-11-10T00:01:49.870Z,27.23
2022-11-10T00:04:16.793Z,26.10
2022-11-10T00:06:44.884Z,28.00
2022-11-10T00:09:11.937Z,26.63
2022-11-10T00:11:38.936Z,26.17
2022-11-10T00:14:24.767Z,26.77
2022-11-10T00:17:06.611Z,26.70
2022-11-10T00:19:34.878Z,25.10
2022-11-10T00:22:03.988Z,26.43
2022-11-10T00:24:30.816Z,27.10
2022-11-10T00:26:57.662Z,27.50
2022-11-10T00:29:24.516Z,27.77
2022-11-10T00:31:51.308Z,28.13
2022-11-10T00:34:18.245Z,27.93
2022-11-10T00:36:45.107Z,26.77
2022-11-10T00:39:12.464Z,26.77
2022-11-10T00:41:39.364Z,26.53
2022-11-10T00:44:06.220Z,28.10
2022-11-10T00:46:33.054Z,27.67
2022-11-10T00:48:59.852Z,27.47
2022-11-10T00:51:28.628Z,27.27
2022-11-10T00:53:55.898Z,26.80
2022-11-10T00:56:23.763Z,27.00
2022-11-10T00:58:50.843Z,27.90
2022-11-10T01:01:20.249Z,26.47
2022-11-10T01:03:47.201Z,28.07
2022-11-10T01:06:16.983Z,27.40
2022-11-10T01:08:44.346Z,28.27
2022-11-10T01:11:14.119Z,26.20
2022-11-10T01:13:42.053Z,27.10
2022-11-10T01:16:13.474Z,27.33
2022-11-10T01:18:41.818Z,25.67
2022-11-10T01:21:09.842Z,25.97
2022-11-10T01:23:36.982Z,27.33
2022-11-10T01:26:10.405Z,27.10
2022-11-10T01:28:37.904Z,25.63
2022-11-10T01:31:07.859Z,26.87
2022-11-10T01:33:35.301Z,27.10
2022-11-10T01:36:02.209Z,25.80
2022-11-10T01:38:34.778Z,26.70
2022-11-10T01:41:03.005Z,25.27
2022-11-10T01:43:30.354Z,26.23
2022-11-10T01:46:08.763Z,25.93
2022-11-10T01:48:44.493Z,26.47
2022-11-10T01:51:27.486Z,26.07
2022-11-10T01:53:59.420Z,27.50
2022-11-10T01:56:30.043Z,25.57
2022-11-10T01:59:01.130Z,26.27
2022-11-10T02:01:28.137Z,25.07
2022-11-10T02:04:01.523Z,26.10
2022-11-10T02:06:31.583Z,24.90
2022-11-10T02:08:59.496Z,25.27
2022-11-10T02:11:28.192Z,25.93
2022-11-10T02:13:55.628Z,25.67
2022-11-10T02:16:23.254Z,25.43
2022-11-10T02:18:50.597Z,25.10
2022-11-10T02:21:19.323Z,25.10
2022-11-10T02:23:47.820Z,25.10
2022-11-10T02:26:19.409Z,27.10
2022-11-10T02:28:46.315Z,26.50
2022-11-10T02:31:13.233Z,24.97
2022-11-10T02:33:40.112Z,27.00
2022-11-10T02:36:07.690Z,26.10
2022-11-10T02:38:34.591Z,25.73
2022-11-10T02:41:01.547Z,24.40
2022-11-10T02:43:31.647Z,26.90
2022-11-10T02:45:58.721Z,25.67
2022-11-10T02:48:26.094Z,26.33
2022-11-10T02:50:53.070Z,25.83
2022-11-10T02:53:20.273Z,25.67
2022-11-10T02:55:47.765Z,26.57
2022-11-10T02:58:14.728Z,26.07
2022-11-10T03:00:41.677Z,25.50
2022-11-10T03:03:08.733Z,25.77
2022-11-10T03:05:36.182Z,24.77
2022-11-10T03:08:04.109Z,26.13
2022-11-10T03:10:31.923Z,25.83
2022-11-10T03:13:07.042Z,25.30
2022-11-10T03:15:34.283Z,25.63
2022-11-10T03:18:05.140Z,25.53
2022-11-10T03:20:32.252Z,24.67
2022-11-10T03:23:04.640Z,24.53
2022-11-10T03:25:32.216Z,25.33
2022-11-10T03:27:59.268Z,24.73
2022-11-10T03:30:26.330Z,25.00
2022-11-10T03:32:53.260Z,24.57
2022-11-10T03:35:20.493Z,25.07
2022-11-10T03:37:47.672Z,25.20
2022-11-10T03:40:14.873Z,24.57
2022-11-10T03:42:45.954Z,24.33
2022-11-10T03:45:14.395Z,23.87
2022-11-10T03:47:41.539Z,26.93
2022-11-10T03:50:08.909Z,25.10
2022-11-10T03:52:38.470Z,24.93
2022-11-10T03:55:05.914Z,25.63
2022-11-10T03:57:33.128Z,25.63
2022-11-10T04:00:00.126Z,24.80
2022-11-10T04:02:27.163Z,25.20
2022-11-10T04:05:12.928Z,26.77
2022-11-10T04:07:58.333Z,26.40
2022-11-10T04:10:25.673Z,24.90
2022-11-10T04:13:11.680Z,25.47
2022-11-10T04:15:44.996Z,25.93
2022-11-10T04:18:26.677Z,24.80
2022-11-10T04:20:59.856Z,24.80
2022-11-10T04:23:36.534Z,25.40
2022-11-10T04:26:29.669Z,24.37
2022-11-10T04:28:59.114Z,24.70
2022-11-10T04:31:27.966Z,25.70
2022-11-10T04:33:55.808Z,25.37
2022-11-10T04:36:29.241Z,25.73
2022-11-10T04:38:57.287Z,24.80
2022-11-10T04:41:28.850Z,25.50
2022-11-10T04:43:55.870Z,25.07
2022-11-10T04:46:36.688Z,25.50
2022-11-10T04:49:05.677Z,25.40
2022-11-10T04:51:35.749Z,24.80
2022-11-10T04:54:03.859Z,25.07
2022-11-10T04:56:31.159Z,25.87
2022-11-10T04:58:58.307Z,25.37
2022-11-10T05:01:27.344Z,26.03
2022-11-10T05:03:55.374Z,24.97
2022-11-10T05:06:22.593Z,25.63
2022-11-10T05:08:49.576Z,25.77
2022-11-10T05:11:17.365Z,26.33
2022-11-10T05:13:45.790Z,25.03
2022-11-10T05:16:13.140Z,26.60
2022-11-10T05:18:41.048Z,24.90
2022-11-10T05:21:08.108Z,26.10
2022-11-10T05:23:42.029Z,27.10
2022-11-10T05:26:17.665Z,26.67
2022-11-10T05:28:45.824Z,27.20
2022-11-10T05:31:13.468Z,27.13
2022-11-10T05:33:40.613Z,28.23
2022-11-10T05:36:09.052Z,27.90
2022-11-10T05:38:41.822Z,28.03
2022-11-10T05:41:10.484Z,28.13
2022-11-10T05:43:37.570Z,27.67
2022-11-10T05:46:04.624Z,29.73
2022-11-10T05:48:31.499Z,28.23
2022-11-10T05:50:58.472Z,29.10
2022-11-10T05:53:25.604Z,29.67
2022-11-10T05:55:58.110Z,30.60
2022-11-10T05:58:25.074Z,29.70
2022-11-10T06:00:52.260Z,29.67
2022-11-10T06:03:20.594Z,30.13
2022-11-10T06:05:47.792Z,31.10
2022-11-10T06:08:14.759Z,31.67
2022-11-10T06:10:42.100Z,30.10
2022-11-10T06:13:10.642Z,30.43
2022-11-10T06:15:37.564Z,31.50
2022-11-10T06:18:04.440Z,31.17
2022-11-10T06:20:31.184Z,31.10
2022-11-10T06:23:02.374Z,32.90
2022-11-10T06:25:31.129Z,31.37
2022-11-10T06:27:58.110Z,29.97
2022-11-10T06:30:25.927Z,30.97
2022-11-10T06:32:52.981Z,31.37
2022-11-10T06:35:20.971Z,30.20
2022-11-10T06:38:05.812Z,31.07
2022-11-10T06:40:33.272Z,31.23
2022-11-10T06:43:00.628Z,32.10
2022-11-10T06:45:30.871Z,31.50
2022-11-10T06:48:13.785Z,30.37
2022-11-10T06:50:40.765Z,31.17
2022-11-10T06:53:07.632Z,31.13
2022-11-10T06:55:34.469Z,30.27
2022-11-10T06:58:01.418Z,31.63
2022-11-10T07:00:29.542Z,30.93
2022-11-10T07:03:16.421Z,29.93
2022-11-10T07:05:43.277Z,31.20
2022-11-10T07:08:16.329Z,31.73
2022-11-10T07:10:45.183Z,32.37
2022-11-10T07:13:12.228Z,31.40
2022-11-10T07:15:39.256Z,30.10
2022-11-10T07:18:06.257Z,31.73
2022-11-10T07:20:33.518Z,32.30
2022-11-10T07:23:02.301Z,31.00
2022-11-10T07:25:31.304Z,33.37
2022-11-10T07:28:01.229Z,31.77
2022-11-10T07:30:29.776Z,30.70
2022-11-10T07:33:11.682Z,30.77
2022-11-10T07:35:39.100Z,29.93
2022-11-10T07:38:08.654Z,30.60
2022-11-10T07:40:36.312Z,31.23
2022-11-10T07:43:03.871Z,31.63
2022-11-10T07:45:31.735Z,31.83
2022-11-10T07:48:03.191Z,30.77
2022-11-10T07:50:30.611Z,29.73
2022-11-10T07:53:11.625Z,30.93
2022-11-10T07:55:40.633Z,30.27
2022-11-10T07:58:08.294Z,29.57
2022-11-10T08:00:36.028Z,29.83
2022-11-10T08:03:17.482Z,31.13
2022-11-10T08:05:44.822Z,29.13
2022-11-10T08:08:12.389Z,29.53
2022-11-10T08:10:40.647Z,28.03
2022-11-10T08:13:10.162Z,28.87
2022-11-10T08:15:37.477Z,29.13
2022-11-10T08:18:07.204Z,28.37
2022-11-10T08:20:34.930Z,29.00
2022-11-10T08:23:06.628Z,28.37
2022-11-10T08:25:35.767Z,28.13
2022-11-10T08:28:04.648Z,28.83
2022-11-10T08:30:32.395Z,28.60
2022-11-10T08:33:01.798Z,27.10
2022-11-10T08:35:30.879Z,27.90
2022-11-10T08:37:57.812Z,26.73
2022-11-10T08:40:27.883Z,27.83
2022-11-10T08:42:59.726Z,27.77
2022-11-10T08:45:27.448Z,27.03
2022-11-10T08:48:10.666Z,25.33
2022-11-10T08:50:38.026Z,25.70
2022-11-10T08:53:07.242Z,26.40
2022-11-10T08:55:34.350Z,25.63
2022-11-10T08:58:03.884Z,25.53
2022-11-10T09:00:32.467Z,25.60
2022-11-10T09:03:18.727Z,24.37
2022-11-10T09:05:46.982Z,24.90
2022-11-10T09:08:14.735Z,23.97
2022-11-10T09:10:44.604Z,25.43
2022-11-10T09:13:14.210Z,24.57
2022-11-10T09:15:43.021Z,23.93
2022-11-10T09:18:11.918Z,24.43
2022-11-10T09:20:39.387Z,24.70
2022-11-10T09:23:07.357Z,25.00
2022-11-10T09:25:34.539Z,24.60
2022-11-10T09:28:01.898Z,24.63
2022-11-10T09:30:29.095Z,22.67
2022-11-10T09:33:00.490Z,22.47
2022-11-10T09:35:27.850Z,22.83
2022-11-10T09:37:55.409Z,22.60
2022-11-10T09:40:28.189Z,22.43
2022-11-10T09:42:57.903Z,23.37
2022-11-10T09:45:31.927Z,22.77
2022-11-10T09:48:06.742Z,23.23
2022-11-10T09:50:38.903Z,22.37
2022-11-10T09:53:22.609Z,23.37
2022-11-10T09:55:53.540Z,22.67
2022-11-10T09:58:24.799Z,22.73
2022-11-10T10:01:05.514Z,22.83
2022-11-10T10:03:37.740Z,23.90
2022-11-10T10:06:12.764Z,23.87
2022-11-10T10:09:15.986Z,23.97
2022-11-10T10:11:51.702Z,23.50
2022-11-10T10:15:11.492Z,23.47
2022-11-10T10:17:44.237Z,22.73
2022-11-10T10:20:19.984Z,22.67
2022-11-10T10:23:11.344Z,23.27
2022-11-10T10:25:41.245Z,22.23
2022-11-10T10:28:23.162Z,23.10
2022-11-10T10:30:57.516Z,21.93
2022-11-10T10:33:24.787Z,22.33
2022-11-10T10:35:51.926Z,22.50
2022-11-10T10:38:31.113Z,23.17
2022-11-10T10:41:04.176Z,22.77
2022-11-10T10:43:31.017Z,21.40
2022-11-10T10:46:11.938Z,21.63
2022-11-10T10:48:38.962Z,20.33
2022-11-10T10:51:06.057Z,21.87
2022-11-10T10:53:33.334Z,21.73
2022-11-10T10:56:15.298Z,21.20
2022-11-10T10:59:02.287Z,20.50
2022-11-10T11:01:33.418Z,21.03
2022-11-10T11:04:05.639Z,20.70
2022-11-10T11:06:34.442Z,19.90
2022-11-10T11:09:08.354Z,19.67
2022-11-10T11:11:38.168Z,19.80
2022-11-10T11:14:13.764Z,18.57
2022-11-10T11:16:57.936Z,19.67
2022-11-10T11:19:37.434Z,19.23
2022-11-10T11:22:22.843Z,19.53
2022-11-10T11:25:07.909Z,19.33
2022-11-10T11:28:03.743Z,18.80
2022-11-10T11:31:04.495Z,18.50
2022-11-10T11:33:31.336Z,18.13
2022-11-10T11:36:12.099Z,17.73
2022-11-10T11:39:20.813Z,17.83
2022-11-10T11:42:04.741Z,17.67
2022-11-10T11:44:58.725Z,16.63
2022-11-10T11:47:53.620Z,16.87
2022-11-10T11:50:39.199Z,16.63
2022-11-10T11:53:14.738Z,16.43
2022-11-10T11:55:59.596Z,15.70
2022-11-10T11:58:52.881Z,14.83
2022-11-10T12:01:34.403Z,15.10
2022-11-10T12:04:19.555Z,13.60
2022-11-10T12:07:13.993Z,13.30
2022-11-10T12:09:50.743Z,13.67
2022-11-10T12:12:36.751Z,12.63
2022-11-10T12:15:22.855Z,13.03
2022-11-10T12:17:49.717Z,13.33
2022-11-10T12:20:42.671Z,12.40
2022-11-10T12:23:28.508Z,13.20
2022-11-10T12:26:38.655Z,12.87
2022-11-10T12:29:15.216Z,11.83
2022-11-10T12:31:44.119Z,11.70
2022-11-10T12:34:38.819Z,12.50
2022-11-10T12:37:07.831Z,12.43
2022-11-10T12:39:58.554Z,12.27
2022-11-10T12:42:29.115Z,12.07
2022-11-10T12:45:00.920Z,11.53
2022-11-10T12:47:37.005Z,11.60
2022-11-10T12:50:38.461Z,11.97
2022-11-10T12:53:18.469Z,14.25
2022-11-10T12:55:57.899Z,11.10
2022-11-10T12:58:26.847Z,10.83
2022-11-10T13:01:13.214Z,11.93
2022-11-10T13:03:57.557Z,12.30
2022-11-10T13:06:31.514Z,12.00
2022-11-10T13:08:59.622Z,11.10
2022-11-10T13:11:33.345Z,11.63
2022-11-10T13:14:02.510Z,12.10
2022-11-10T13:16:52.230Z,11.43
2022-11-10T13:19:24.436Z,11.80
2022-11-10T13:21:51.203Z,12.17
2022-11-10T13:24:35.318Z,11.70
2022-11-10T13:27:07.139Z,12.00
2022-11-10T13:29:43.547Z,12.07
2022-11-10T13:32:31.563Z,11.93
2022-11-10T13:35:43.576Z,11.63
2022-11-10T13:38:36.287Z,13.32
2022-11-10T13:41:33.206Z,11.70
2022-11-10T13:44:00.254Z,11.90
2022-11-10T13:46:42.848Z,11.43
2022-11-10T13:49:28.192Z,12.17
2022-11-10T13:52:06.150Z,11.93
2022-11-10T13:54:46.850Z,11.63
2022-11-10T13:57:36.406Z,11.53
2022-11-10T14:00:25.097Z,11.30
2022-11-10T14:02:58.825Z,11.70
2022-11-10T14:05:49.092Z,11.20
2022-11-10T14:08:23.799Z,11.23
2022-11-10T14:10:57.437Z,12.93
2022-11-10T14:13:41.302Z,12.37
2022-11-10T14:16:25.315Z,10.70
2022-11-10T14:18:56.188Z,11.23
2022-11-10T14:21:47.658Z,11.67
2022-11-10T14:24:24.485Z,11.57
2022-11-10T14:26:53.735Z,11.20
2022-11-10T14:29:21.813Z,11.37
2022-11-10T14:31:48.887Z,11.20
2022-11-10T14:34:17.658Z,11.80
2022-11-10T14:36:55.849Z,10.73
2022-11-10T14:39:30.081Z,11.40
2022-11-10T14:41:59.601Z,11.17
2022-11-10T14:44:28.628Z,11.90
2022-11-10T14:46:56.638Z,12.73
2022-11-10T14:49:28.189Z,11.90
2022-11-10T14:51:58.211Z,12.60
2022-11-10T14:54:27.503Z,12.50
2022-11-10T14:56:58.174Z,12.47
2022-11-10T14:59:25.984Z,11.90
2022-11-10T15:01:59.219Z,12.53
2022-11-10T15:04:32.990Z,12.17
2022-11-10T15:07:00.793Z,12.00
2022-11-10T15:09:32.247Z,13.17
2022-11-10T15:12:26.814Z,12.83
2022-11-10T15:15:00.998Z,12.90
2022-11-10T15:17:50.125Z,13.70
2022-11-10T15:20:33.889Z,12.30
2022-11-10T15:23:03.311Z,13.13
2022-11-10T15:25:36.789Z,13.93
2022-11-10T15:28:05.685Z,13.63
2022-11-10T15:30:32.930Z,13.80
2022-11-10T15:33:02.437Z,13.13
2022-11-10T15:35:31.851Z,15.50
2022-11-10T15:37:59.875Z,14.23
2022-11-10T15:40:45.718Z,14.10
2022-11-10T15:43:26.562Z,13.40
2022-11-10T15:46:02.348Z,13.63
2022-11-10T15:48:38.930Z,13.10
2022-11-10T15:51:06.414Z,13.73
2022-11-10T15:53:38.420Z,14.10
2022-11-10T15:56:07.627Z,16.60
2022-11-10T15:58:34.642Z,16.60
2022-11-10T16:01:02.227Z,15.10
2022-11-10T16:03:31.279Z,13.43
2022-11-10T16:05:58.168Z,15.83
2022-11-10T16:08:26.240Z,13.67
2022-11-10T16:10:56.098Z,13.30
2022-11-10T16:13:28.959Z,14.07
2022-11-10T16:15:57.676Z,14.23
2022-11-10T16:18:28.613Z,13.73
2022-11-10T16:20:55.604Z,13.33
2022-11-10T16:23:23.171Z,13.37
2022-11-10T16:25:52.165Z,14.07
2022-11-10T16:28:25.588Z,14.13
2022-11-10T16:30:53.841Z,13.93
2022-11-10T16:33:23.397Z,14.03
2022-11-10T16:35:52.227Z,14.37
2022-11-10T16:38:22.406Z,13.70
2022-11-10T16:41:01.040Z,13.60
2022-11-10T16:43:29.060Z,13.33
2022-11-10T16:46:01.703Z,14.13
2022-11-10T16:48:34.297Z,14.03
2022-11-10T16:51:01.980Z,13.90
2022-11-10T16:53:30.899Z,14.33
2022-11-10T16:55:58.565Z,13.63
2022-11-10T16:58:27.395Z,14.77
2022-11-10T17:00:58.082Z,14.70
2022-11-10T17:03:35.709Z,13.60
2022-11-10T17:06:02.615Z,14.53
2022-11-10T17:08:31.870Z,14.63
2022-11-10T17:10:59.138Z,15.83
2022-11-10T17:13:26.181Z,14.80
2022-11-10T17:15:55.706Z,15.20
2022-11-10T17:18:25.752Z,14.50
2022-11-10T17:20:53.092Z,15.80
2022-11-10T17:23:24.249Z,16.63
2022-11-10T17:25:52.028Z,15.67
2022-11-10T17:28:19.337Z,15.10
2022-11-10T17:30:46.711Z,15.27
2022-11-10T17:33:13.722Z,15.33
2022-11-10T17:35:47.873Z,16.10
2022-11-10T17:38:25.072Z,14.53
2022-11-10T17:40:52.542Z,14.37
2022-11-10T17:43:20.381Z,14.07
2022-11-10T17:45:47.903Z,14.50
2022-11-10T17:48:14.905Z,14.60
2022-11-10T17:50:43.470Z,15.00
2022-11-10T17:53:21.147Z,15.17
2022-11-10T17:55:48.661Z,14.13
2022-11-10T17:58:16.516Z,14.47
2022-11-10T18:00:44.056Z,14.43
2022-11-10T18:03:15.790Z,14.10
2022-11-10T18:05:43.392Z,13.60
2022-11-10T18:08:11.289Z,13.67
2022-11-10T18:10:42.646Z,14.13
2022-11-10T18:13:10.849Z,14.23
2022-11-10T18:15:44.271Z,13.37
2022-11-10T18:18:16.354Z,15.10
2022-11-10T18:20:44.297Z,14.50
2022-11-10T18:23:12.667Z,14.80
2022-11-10T18:25:41.510Z,13.80
2022-11-10T18:28:09.725Z,14.83
2022-11-10T18:30:38.045Z,14.30
2022-11-10T18:33:05.533Z,14.73
2022-11-10T18:35:35.035Z,14.57
2022-11-10T18:38:01.911Z,14.17
2022-11-10T18:40:28.703Z,13.90
2022-11-10T18:43:07.186Z,14.67
2022-11-10T18:45:35.499Z,14.73
2022-11-10T18:48:03.589Z,14.67
2022-11-10T18:50:30.736Z,14.10
2022-11-10T18:52:57.982Z,14.37
2022-11-10T18:55:25.065Z,14.23
2022-11-10T18:57:52.912Z,14.90
2022-11-10T19:00:19.970Z,14.90
2022-11-10T19:02:47.124Z,14.47
2022-11-10T19:05:14.041Z,14.80
2022-11-10T19:07:40.956Z,15.53
2022-11-10T19:10:08.203Z,14.10
2022-11-10T19:12:36.166Z,14.97
2022-11-10T19:15:03.394Z,14.27
2022-11-10T19:17:30.275Z,15.17
2022-11-10T19:19:57.105Z,15.17
2022-11-10T19:22:24.067Z,14.53
2022-11-10T19:25:07.639Z,15.10
2022-11-10T19:27:36.786Z,15.23
2022-11-10T19:30:03.981Z,15.57
2022-11-10T19:32:43.288Z,15.20
2022-11-10T19:35:17.956Z,14.83
2022-11-10T19:37:54.484Z,15.23
2022-11-10T19:40:22.124Z,14.97
2022-11-10T19:42:49.536Z,15.43
2022-11-10T19:45:16.775Z,15.13
2022-11-10T19:47:43.643Z,15.13
2022-11-10T19:50:11.118Z,15.73
2022-11-10T19:52:40.284Z,16.27
2022-11-10T19:55:08.418Z,16.10
2022-11-10T19:57:35.506Z,15.90
2022-11-10T20:00:02.500Z,16.30
2022-11-10T20:02:29.322Z,16.63
2022-11-10T20:05:16.333Z,17.60
2022-11-10T20:08:08.788Z,16.57
2022-11-10T20:10:40.938Z,17.10
2022-11-10T20:13:09.817Z,17.17
2022-11-10T20:15:41.170Z,16.87
2022-11-10T20:18:13.014Z,17.13
2022-11-10T20:20:44.666Z,16.77
2022-11-10T20:23:12.375Z,17.77
2022-11-10T20:26:58.604Z,17.87
2022-11-10T20:32:52.956Z,16.70
2022-11-10T20:35:19.911Z,16.50
2022-11-10T20:37:47.028Z,16.63
2022-11-10T20:40:44.037Z,18.00
2022-11-10T20:43:12.981Z,17.43
2022-11-10T20:45:40.169Z,17.37
2022-11-10T20:48:15.616Z,16.73
2022-11-10T20:50:48.429Z,17.13
2022-11-10T20:53:15.600Z,17.93
2022-11-10T20:55:53.597Z,18.23
2022-11-10T20:58:21.476Z,18.00
2022-11-10T21:00:48.772Z,17.53
2022-11-10T21:03:15.875Z,18.07
2022-11-10T21:05:42.788Z,18.87
2022-11-10T21:08:13.554Z,18.33
2022-11-10T21:10:44.255Z,19.17
2022-11-10T21:13:11.574Z,18.80
2022-11-10T21:15:53.682Z,18.70
2022-11-10T21:18:22.016Z,18.77
2022-11-10T21:21:28.349Z,20.43
2022-11-10T21:24:00.704Z,19.73
2022-11-10T21:26:43.652Z,20.37
2022-11-10T21:29:35.876Z,20.13
2022-11-10T21:32:29.649Z,20.00
2022-11-10T21:34:57.063Z,19.87
2022-11-10T21:37:25.888Z,20.53
2022-11-10T21:39:53.109Z,20.03
2022-11-10T21:42:26.080Z,20.03
2022-11-10T21:44:53.119Z,21.37
2022-11-10T21:47:54.702Z,19.80
2022-11-10T21:50:24.257Z,20.30
2022-11-10T21:52:52.053Z,20.43
2022-11-10T21:55:22.561Z,20.33
2022-11-10T21:57:58.061Z,19.37
2022-11-10T22:00:26.176Z,21.53
2022-11-10T22:02:59.502Z,20.77
2022-11-10T22:05:27.097Z,19.47
2022-11-10T22:07:54.391Z,19.60
2022-11-10T22:10:43.056Z,20.47
2022-11-10T22:13:39.394Z,19.93
2022-11-10T22:16:55.137Z,20.07
2022-11-10T22:19:22.213Z,19.60
2022-11-10T22:22:08.002Z,20.07
2022-11-10T22:24:43.587Z,19.70
2022-11-10T22:27:10.701Z,19.20
2022-11-10T22:29:37.860Z,19.73
2022-11-10T22:32:14.265Z,19.60
2022-11-10T22:34:49.442Z,19.83
2022-11-10T22:37:17.374Z,20.13
2022-11-10T22:40:03.331Z,19.20
2022-11-10T22:42:54.078Z,18.47
2022-11-10T22:45:22.601Z,18.77
2022-11-10T22:48:21.566Z,18.37
2022-11-10T22:51:06.338Z,18.27
2022-11-10T22:53:45.193Z,17.87
2022-11-10T22:56:47.163Z,18.10
2022-11-10T22:59:42.887Z,18.30
2022-11-10T23:02:24.573Z,18.07
2022-11-10T23:05:04.628Z,18.17
2022-11-10T23:07:34.427Z,17.93
2022-11-10T23:10:09.345Z,18.10
2022-11-10T23:12:44.815Z,17.57
2022-11-10T23:15:18.945Z,17.83
2022-11-10T23:18:07.159Z,17.80
2022-11-10T23:21:11.613Z,17.73
2022-11-10T23:27:14.380Z,17.77
2022-11-10T23:29:55.710Z,18.50
2022-11-10T23:32:26.596Z,18.87
2022-11-10T23:35:02.383Z,18.13
2022-11-10T23:37:29.450Z,17.60
2022-11-10T23:39:56.484Z,18.23
2022-11-10T23:42:23.923Z,18.40
2022-11-10T23:44:51.651Z,18.30
2022-11-10T23:47:19.578Z,17.13
2022-11-10T23:49:49.391Z,18.50
2022-11-10T23:52:23.200Z,19.07
2022-11-10T23:54:56.335Z,18.27
2022-11-10T23:57:40.872Z,19.33
